createdAt,value
2018-03-07T00:00:09.681Z,19.03
2018-03-07T00:02:38.656Z,18.17
2018-03-07T00:05:07.699Z,17.60
2018-03-07T00:07:36.701Z,16.97
2018-03-07T00:10:05.684Z,16.50
2018-03-07T00:17:36.724Z,17.87
2018-03-07T00:20:05.675Z,16.53
2018-03-07T00:22:34.732Z,17.93
2018-03-07T00:25:03.721Z,16.90
2018-03-07T00:27:32.759Z,15.43
2018-03-07T00:30:01.699Z,15.47
2018-03-07T00:32:30.760Z,16.33
2018-03-07T00:34:59.735Z,16.37
2018-03-07T00:37:28.685Z,15.83
2018-03-07T00:39:57.687Z,15.93
2018-03-07T00:42:26.675Z,16.27
2018-03-07T00:44:55.685Z,16.30
2018-03-07T00:47:24.723Z,15.17
2018-03-07T00:49:53.740Z,15.53
2018-03-07T00:52:22.751Z,16.13
2018-03-07T00:54:51.673Z,14.37
2018-03-07T00:57:20.651Z,14.30
2018-03-07T00:59:49.635Z,14.90
2018-03-07T01:02:18.665Z,13.97
2018-03-07T01:04:47.696Z,14.43
2018-03-07T01:07:16.731Z,14.40
2018-03-07T01:09:45.663Z,14.87
2018-03-07T01:12:14.695Z,14.63
2018-03-07T01:14:43.743Z,15.13
2018-03-07T01:19:46.522Z,14.85
2018-03-07T01:22:15.708Z,13.97
2018-03-07T01:24:44.695Z,14.17
2018-03-07T01:27:13.719Z,14.10
2018-03-07T01:29:42.691Z,13.33
2018-03-07T01:32:11.640Z,12.97
2018-03-07T01:34:40.656Z,12.50
2018-03-07T01:37:09.685Z,13.03
2018-03-07T01:39:38.653Z,12.53
2018-03-07T01:42:07.723Z,13.70
2018-03-07T01:44:36.746Z,14.43
2018-03-07T01:47:05.785Z,12.37
2018-03-07T01:49:35.318Z,13.90
2018-03-07T01:52:04.745Z,12.50
2018-03-07T01:54:33.855Z,12.67
2018-03-07T01:57:02.867Z,13.57
2018-03-07T01:59:31.793Z,13.13
2018-03-07T02:02:00.788Z,13.03
2018-03-07T02:04:29.874Z,12.87
2018-03-07T02:06:58.768Z,12.03
2018-03-07T02:09:27.766Z,12.33
2018-03-07T02:11:57.476Z,11.57
2018-03-07T02:14:26.888Z,12.90
2018-03-07T02:16:56.201Z,13.07
2018-03-07T02:19:26.808Z,12.50
2018-03-07T02:21:56.236Z,11.57
2018-03-07T02:24:25.762Z,11.93
2018-03-07T02:26:55.477Z,12.00
2018-03-07T02:29:24.716Z,11.03
2018-03-07T02:31:53.792Z,12.00
2018-03-07T02:34:22.751Z,11.93
2018-03-07T02:36:52.154Z,11.27
2018-03-07T02:39:21.428Z,11.60
2018-03-07T02:41:50.864Z,12.00
2018-03-07T02:44:20.521Z,11.13
2018-03-07T02:46:49.801Z,11.73
2018-03-07T02:49:19.314Z,11.37
2018-03-07T02:51:48.739Z,11.07
2018-03-07T02:54:17.741Z,10.60
2018-03-07T02:56:46.727Z,10.07
2018-03-07T02:59:15.872Z,10.57
2018-03-07T03:01:45.233Z,10.80
2018-03-07T03:04:15.184Z,11.27
2018-03-07T03:13:53.668Z,11.00
2018-03-07T03:16:22.687Z,11.70
2018-03-07T03:18:51.694Z,10.93
2018-03-07T03:21:20.880Z,10.97
2018-03-07T03:23:49.893Z,11.23
2018-03-07T03:28:48.532Z,10.63
2018-03-07T03:31:17.734Z,10.13
2018-03-07T03:33:46.727Z,10.23
2018-03-07T03:36:15.771Z,10.20
2018-03-07T03:38:45.481Z,10.40
2018-03-07T03:41:14.763Z,10.37
2018-03-07T03:43:44.463Z,10.90
2018-03-07T03:46:13.636Z,11.40
2018-03-07T03:48:42.667Z,11.17
2018-03-07T03:51:11.719Z,9.83
2018-03-07T03:53:40.781Z,9.50
2018-03-07T03:56:09.803Z,10.40
2018-03-07T03:58:39.221Z,9.13
2018-03-07T04:03:05.871Z,9.37
2018-03-07T04:05:35.318Z,10.00
2018-03-07T04:08:04.479Z,9.90
2018-03-07T04:10:33.661Z,9.67
2018-03-07T04:13:02.786Z,10.00
2018-03-07T04:15:31.743Z,10.37
2018-03-07T04:18:00.874Z,9.20
2018-03-07T04:20:29.738Z,9.67
2018-03-07T04:22:58.735Z,9.30
2018-03-07T04:25:28.225Z,9.17
2018-03-07T04:27:57.733Z,8.93
2018-03-07T04:30:27.189Z,8.80
2018-03-07T04:33:51.738Z,9.03
2018-03-07T04:36:20.739Z,9.30
2018-03-07T04:38:49.767Z,8.83
2018-03-07T04:41:19.495Z,8.43
2018-03-07T04:43:48.674Z,17.23
2018-03-07T04:46:18.162Z,18.83
2018-03-07T04:48:47.559Z,17.60
2018-03-07T04:51:18.382Z,16.33
2018-03-07T04:53:47.725Z,16.00
2018-03-07T04:56:17.551Z,14.83
2018-03-07T04:58:46.728Z,14.67
2018-03-07T05:01:15.783Z,14.57
2018-03-07T05:08:07.693Z,14.23
2018-03-07T05:10:36.750Z,13.67
2018-03-07T05:13:05.795Z,14.20
2018-03-07T05:18:27.723Z,12.80
2018-03-07T05:20:56.767Z,11.87
2018-03-07T05:23:25.712Z,15.87
2018-03-07T05:25:54.739Z,13.27
2018-03-07T05:28:24.478Z,15.77
2018-03-07T05:30:53.543Z,18.90
2018-03-07T05:33:22.685Z,19.67
2018-03-07T05:35:51.715Z,19.20
2018-03-07T05:38:51.827Z,19.10
2018-03-07T05:41:20.811Z,21.10
2018-03-07T05:46:35.553Z,19.97
2018-03-07T05:49:04.687Z,25.00
2018-03-07T05:51:33.844Z,22.47
2018-03-07T05:54:02.778Z,22.03
2018-03-07T05:56:31.778Z,20.17
2018-03-07T05:59:00.704Z,20.20
2018-03-07T06:01:29.679Z,19.63
2018-03-07T06:03:58.644Z,21.23
2018-03-07T06:06:27.644Z,16.07
2018-03-07T06:08:56.659Z,14.77
2018-03-07T06:11:25.713Z,16.97
2018-03-07T06:13:54.702Z,13.67
2018-03-07T06:16:23.643Z,12.80
2018-03-07T06:18:52.671Z,19.17
2018-03-07T06:21:21.644Z,13.97
2018-03-07T06:23:50.743Z,13.33
2018-03-07T06:26:19.707Z,13.43
2018-03-07T06:28:48.623Z,14.27
2018-03-07T06:31:17.684Z,16.03
2018-03-07T06:33:46.817Z,13.23
2018-03-07T06:36:16.218Z,15.00
2018-03-07T06:38:45.212Z,13.43
2018-03-07T06:41:14.040Z,12.77
2018-03-07T06:43:43.231Z,15.90
2018-03-07T06:46:12.633Z,14.53
2018-03-07T06:48:41.639Z,14.50
2018-03-07T06:51:10.613Z,11.00
2018-03-07T06:53:39.664Z,14.33
2018-03-07T06:56:08.627Z,16.20
2018-03-07T06:58:37.606Z,17.10
2018-03-07T07:01:06.675Z,15.13
2018-03-07T07:03:35.710Z,16.87
2018-03-07T07:06:04.629Z,21.73
2018-03-07T07:08:33.627Z,12.83
2018-03-07T07:13:05.516Z,15.70
2018-03-07T07:15:34.685Z,13.03
2018-03-07T07:18:03.679Z,12.50
2018-03-07T07:20:32.682Z,14.70
2018-03-07T07:25:30.629Z,12.23
2018-03-07T07:28:01.208Z,13.10
2018-03-07T07:30:30.236Z,13.40
2018-03-07T07:33:00.684Z,15.20
2018-03-07T07:35:29.727Z,11.77
2018-03-07T07:37:58.869Z,13.10
2018-03-07T07:40:28.416Z,12.00
2018-03-07T07:42:57.620Z,13.70
2018-03-07T07:45:26.654Z,11.87
2018-03-07T07:47:56.504Z,12.03
2018-03-07T07:50:25.685Z,9.47
2018-03-07T07:52:54.672Z,13.60
2018-03-07T07:55:23.657Z,10.80
2018-03-07T08:00:40.743Z,13.73
2018-03-07T08:03:09.622Z,10.90
2018-03-07T08:05:38.646Z,12.13
2018-03-07T08:08:07.629Z,12.47
2018-03-07T08:10:36.720Z,11.07
2018-03-07T08:13:06.752Z,13.57
2018-03-07T08:15:35.650Z,11.53
2018-03-07T08:18:04.624Z,13.80
2018-03-07T08:20:33.636Z,10.77
2018-03-07T08:23:02.651Z,13.07
2018-03-07T08:25:31.639Z,11.70
2018-03-07T08:28:00.698Z,12.57
2018-03-07T08:30:29.792Z,15.27
2018-03-07T08:32:58.683Z,12.07
2018-03-07T08:35:27.643Z,10.73
2018-03-07T08:37:56.658Z,13.03
2018-03-07T08:40:25.717Z,12.27
2018-03-07T08:42:54.712Z,10.17
2018-03-07T08:45:23.651Z,9.87
2018-03-07T08:47:52.640Z,11.80
2018-03-07T08:50:21.651Z,12.60
2018-03-07T08:52:50.642Z,15.70
2018-03-07T08:58:19.603Z,12.60
2018-03-07T09:00:48.740Z,13.13
2018-03-07T09:03:17.644Z,15.20
2018-03-07T09:05:46.655Z,12.77
2018-03-07T09:08:15.611Z,14.13
2018-03-07T09:10:44.643Z,13.30
2018-03-07T09:13:13.692Z,11.07
2018-03-07T09:15:42.635Z,9.63
2018-03-07T09:18:11.706Z,11.60
2018-03-07T09:20:40.713Z,10.90
2018-03-07T09:23:09.627Z,8.07
2018-03-07T09:25:38.639Z,10.63
2018-03-07T09:28:07.641Z,9.37
2018-03-07T09:32:56.217Z,10.37
2018-03-07T09:35:25.484Z,10.43
2018-03-07T09:37:54.640Z,10.67
2018-03-07T09:40:23.610Z,9.33
2018-03-07T09:42:52.615Z,8.97
2018-03-07T09:45:21.726Z,8.67
2018-03-07T09:47:50.615Z,9.40
2018-03-07T09:50:19.673Z,8.43
2018-03-07T09:52:48.631Z,9.70
2018-03-07T09:55:17.623Z,9.77
2018-03-07T09:57:46.595Z,9.03
2018-03-07T10:00:15.656Z,8.70
2018-03-07T10:02:44.640Z,9.50
2018-03-07T10:05:13.672Z,7.87
2018-03-07T10:07:42.739Z,8.17
2018-03-07T10:10:11.724Z,9.70
2018-03-07T10:12:40.748Z,6.90
2018-03-07T10:15:10.218Z,8.70
2018-03-07T10:17:39.673Z,7.90
2018-03-07T10:20:08.774Z,6.27
2018-03-07T10:22:37.767Z,7.40
2018-03-07T10:25:07.035Z,7.37
2018-03-07T10:27:36.721Z,7.10
2018-03-07T10:30:05.735Z,7.60
2018-03-07T10:32:34.737Z,7.27
2018-03-07T10:35:03.802Z,7.27
2018-03-07T10:37:33.303Z,6.93
2018-03-07T10:40:02.644Z,10.57
2018-03-07T10:42:31.689Z,7.93
2018-03-07T10:47:35.696Z,6.83
2018-03-07T10:50:04.653Z,7.13
2018-03-07T10:52:33.631Z,7.77
2018-03-07T10:55:02.695Z,5.90
2018-03-07T10:57:31.695Z,6.73
2018-03-07T11:04:54.733Z,6.00
2018-03-07T11:07:23.717Z,6.03
2018-03-07T11:09:52.888Z,5.47
2018-03-07T11:14:50.863Z,6.13
2018-03-07T11:17:19.867Z,5.30
2018-03-07T11:19:48.759Z,7.90
2018-03-07T11:22:17.771Z,9.00
2018-03-07T11:24:46.775Z,6.17
2018-03-07T11:27:16.167Z,6.93
2018-03-07T11:29:45.494Z,6.57
2018-03-07T11:32:14.739Z,6.07
2018-03-07T11:34:44.684Z,5.60
2018-03-07T11:37:13.860Z,5.33
2018-03-07T11:39:43.344Z,5.00
2018-03-07T11:42:12.532Z,4.40
2018-03-07T11:44:41.710Z,5.10
2018-03-07T11:47:10.736Z,5.70
2018-03-07T11:49:39.713Z,6.67
2018-03-07T11:52:08.732Z,7.00
2018-03-07T11:54:37.771Z,7.27
2018-03-07T11:57:07.465Z,6.20
2018-03-07T11:59:36.700Z,5.60
2018-03-07T12:02:05.733Z,7.07
2018-03-07T12:04:34.760Z,4.40
2018-03-07T12:07:03.861Z,5.07
2018-03-07T12:09:32.767Z,4.83
2018-03-07T12:12:01.752Z,5.43
2018-03-07T12:14:30.864Z,4.37
2018-03-07T12:16:59.748Z,5.90
2018-03-07T12:21:59.685Z,5.77
2018-03-07T12:24:28.754Z,4.17
2018-03-07T12:26:57.737Z,4.50
2018-03-07T12:29:26.688Z,6.10
2018-03-07T12:31:55.672Z,5.07
2018-03-07T12:34:24.729Z,4.97
2018-03-07T12:36:53.733Z,6.00
2018-03-07T12:39:22.671Z,5.03
2018-03-07T12:41:51.694Z,6.10
2018-03-07T12:44:20.828Z,4.17
2018-03-07T12:48:39.473Z,4.90
2018-03-07T12:51:08.593Z,4.53
2018-03-07T12:53:37.689Z,5.93
2018-03-07T12:56:06.714Z,4.10
2018-03-07T12:58:35.842Z,5.00
2018-03-07T13:01:04.774Z,4.40
2018-03-07T13:03:33.708Z,4.60
2018-03-07T13:06:02.707Z,5.60
2018-03-07T13:08:31.698Z,3.47
2018-03-07T13:11:00.687Z,5.47
2018-03-07T13:14:21.490Z,4.97
2018-03-07T13:16:50.708Z,3.73
2018-03-07T13:19:19.677Z,5.00
2018-03-07T13:21:48.671Z,3.63
2018-03-07T13:24:17.756Z,5.47
2018-03-07T13:26:46.642Z,3.63
2018-03-07T13:29:15.640Z,4.87
2018-03-07T13:31:44.635Z,5.03
2018-03-07T13:36:58.868Z,4.57
2018-03-07T13:39:28.179Z,3.57
2018-03-07T13:42:41.697Z,4.90
2018-03-07T13:45:10.752Z,4.80
2018-03-07T13:47:39.724Z,5.40
2018-03-07T13:50:09.197Z,5.23
2018-03-07T13:52:38.441Z,3.13
2018-03-07T13:55:07.651Z,4.67
2018-03-07T13:57:36.850Z,3.87
2018-03-07T14:00:05.861Z,3.33
2018-03-07T14:02:35.397Z,4.83
2018-03-07T14:05:04.727Z,2.93
2018-03-07T14:07:33.735Z,3.47
2018-03-07T14:10:03.623Z,3.63
2018-03-07T14:12:32.655Z,4.10
2018-03-07T14:15:02.218Z,4.10
2018-03-07T14:17:32.221Z,3.20
2018-03-07T14:20:01.461Z,4.93
2018-03-07T14:22:30.609Z,3.20
2018-03-07T14:24:59.632Z,4.20
2018-03-07T14:27:28.707Z,6.03
2018-03-07T14:29:57.633Z,3.67
2018-03-07T14:32:26.652Z,3.77
2018-03-07T14:34:55.686Z,3.53
2018-03-07T14:37:24.632Z,4.23
2018-03-07T14:39:53.751Z,4.60
2018-03-07T14:42:22.730Z,4.23
2018-03-07T14:45:35.654Z,3.50
2018-03-07T14:48:04.628Z,2.93
2018-03-07T14:50:33.731Z,4.97
2018-03-07T14:53:02.693Z,5.03
2018-03-07T14:59:44.889Z,4.53
2018-03-07T15:02:13.895Z,4.33
2018-03-07T15:05:04.752Z,4.57
2018-03-07T15:07:33.877Z,4.13
2018-03-07T15:10:03.036Z,4.27
2018-03-07T15:15:01.164Z,3.20
2018-03-07T15:17:30.872Z,3.65
2018-03-07T15:20:00.775Z,3.63
2018-03-07T15:22:29.907Z,4.03
2018-03-07T15:27:28.696Z,4.00
2018-03-07T15:29:57.774Z,3.97
2018-03-07T15:32:27.181Z,4.50
2018-03-07T15:34:56.444Z,4.23
2018-03-07T15:37:26.182Z,5.33
2018-03-07T15:39:55.572Z,5.80
2018-03-07T15:44:57.154Z,3.73
2018-03-07T15:47:26.757Z,3.83
2018-03-07T15:49:56.061Z,4.30
2018-03-07T15:52:25.804Z,4.25
2018-03-07T15:54:55.332Z,3.60
2018-03-07T15:57:24.884Z,4.47
2018-03-07T16:02:22.881Z,4.60
2018-03-07T16:04:51.791Z,4.30
2018-03-07T16:07:21.069Z,4.63
2018-03-07T16:14:57.758Z,5.07
2018-03-07T16:17:26.774Z,5.63
2018-03-07T16:19:55.864Z,11.37
2018-03-07T16:27:00.168Z,10.33
2018-03-07T16:29:29.805Z,8.50
2018-03-07T16:31:58.730Z,9.40
2018-03-07T16:34:28.065Z,9.93
2018-03-07T16:39:25.875Z,8.77
2018-03-07T16:41:55.345Z,9.90
2018-03-07T16:44:25.171Z,10.70
2018-03-07T16:46:54.812Z,7.00
2018-03-07T16:49:25.173Z,7.63
2018-03-07T16:51:54.697Z,6.67
2018-03-07T16:54:24.899Z,6.57
2018-03-07T16:56:59.233Z,5.60
2018-03-07T16:59:28.775Z,7.20
2018-03-07T17:01:57.753Z,8.80
2018-03-07T17:04:26.760Z,7.97
2018-03-07T17:07:30.437Z,8.60
2018-03-07T17:10:00.603Z,10.63
2018-03-07T17:12:29.713Z,9.37
2018-03-07T17:14:58.760Z,16.23
2018-03-07T17:22:27.751Z,8.13
2018-03-07T17:24:56.772Z,11.50
2018-03-07T17:27:25.771Z,10.63
2018-03-07T17:29:54.873Z,9.53
2018-03-07T17:32:24.165Z,8.57
2018-03-07T17:34:53.711Z,9.60
2018-03-07T17:37:22.857Z,10.40
2018-03-07T17:39:51.784Z,10.40
2018-03-07T17:42:20.929Z,7.30
2018-03-07T17:48:28.513Z,8.13
2018-03-07T17:50:57.663Z,8.73
2018-03-07T17:53:26.703Z,6.73
2018-03-07T18:00:46.449Z,7.57
2018-03-07T18:07:37.647Z,8.53
2018-03-07T18:10:08.228Z,6.70
2018-03-07T18:12:38.424Z,8.33
2018-03-07T18:15:07.595Z,7.33
2018-03-07T18:17:38.417Z,7.20
2018-03-07T18:20:07.508Z,11.07
2018-03-07T18:22:37.702Z,10.87
2018-03-07T18:29:26.612Z,13.70
2018-03-07T18:31:55.608Z,14.93
2018-03-07T18:34:24.632Z,14.03
2018-03-07T18:36:53.596Z,16.33
2018-03-07T18:39:22.697Z,11.30
2018-03-07T18:43:32.611Z,12.00
2018-03-07T18:46:01.690Z,14.40
2018-03-07T18:48:30.619Z,16.50
2018-03-07T18:50:59.713Z,19.70
2018-03-07T18:53:28.703Z,19.97
2018-03-07T18:55:57.732Z,25.67
2018-03-07T18:58:26.663Z,24.17
2018-03-07T19:04:28.681Z,29.37
2018-03-07T19:09:07.053Z,29.43
2018-03-07T19:11:36.661Z,28.90
2018-03-07T19:14:05.711Z,28.23
2018-03-07T19:16:34.738Z,23.53
2018-03-07T19:19:03.667Z,20.73
2018-03-07T19:21:32.655Z,20.17
2018-03-07T19:24:01.649Z,18.53
2018-03-07T19:27:08.624Z,19.73
2018-03-07T19:29:37.635Z,17.60
2018-03-07T19:32:06.662Z,17.10
2018-03-07T19:34:35.667Z,16.23
2018-03-07T19:37:04.678Z,16.33
2018-03-07T19:39:33.648Z,17.77
2018-03-07T19:42:30.623Z,15.27
2018-03-07T19:44:59.631Z,13.43
2018-03-07T19:47:28.629Z,14.60
2018-03-07T19:49:57.633Z,13.53
2018-03-07T19:52:26.657Z,16.00
2018-03-07T19:54:55.647Z,18.40
2018-03-07T19:57:24.641Z,17.07
2018-03-07T19:59:53.757Z,19.93
2018-03-07T20:02:22.764Z,17.37
2018-03-07T20:08:02.439Z,16.50
2018-03-07T20:10:31.687Z,16.03
2018-03-07T20:15:08.720Z,14.00
2018-03-07T20:17:37.686Z,15.40
2018-03-07T20:22:54.710Z,13.37
2018-03-07T20:27:51.723Z,12.23
2018-03-07T20:30:20.701Z,12.83
2018-03-07T20:32:49.718Z,11.93
2018-03-07T20:35:18.836Z,12.03
2018-03-07T20:37:47.708Z,12.97
2018-03-07T20:40:16.697Z,12.57
2018-03-07T20:42:45.795Z,13.00
2018-03-07T20:48:30.522Z,11.77
2018-03-07T20:59:39.653Z,12.13
2018-03-07T21:04:51.707Z,18.60
2018-03-07T21:09:32.655Z,14.57
2018-03-07T21:12:02.585Z,16.30
2018-03-07T21:14:31.636Z,15.43
2018-03-07T21:17:00.648Z,15.37
2018-03-07T21:19:29.685Z,15.00
2018-03-07T21:21:58.699Z,13.53
2018-03-07T21:25:31.682Z,12.83
2018-03-07T21:28:00.655Z,14.13
2018-03-07T21:30:29.653Z,13.37
2018-03-07T21:32:58.643Z,13.40
2018-03-07T21:39:58.443Z,11.00
2018-03-07T21:42:27.788Z,12.10
2018-03-07T21:44:57.519Z,12.00
2018-03-07T21:47:26.596Z,11.17
2018-03-07T21:49:55.721Z,12.03
2018-03-07T21:52:24.972Z,10.47
2018-03-07T21:57:22.852Z,13.97
2018-03-07T21:59:51.695Z,14.97
2018-03-07T22:02:20.661Z,15.73
2018-03-07T22:04:49.680Z,16.80
2018-03-07T22:07:18.741Z,14.27
2018-03-07T22:13:08.399Z,13.80
2018-03-07T22:15:38.442Z,12.30
2018-03-07T22:18:07.486Z,11.07
2018-03-07T22:20:37.655Z,11.63
2018-03-07T22:23:07.627Z,11.07
2018-03-07T22:25:37.184Z,10.70
2018-03-07T22:28:06.204Z,10.50
2018-03-07T22:30:35.629Z,10.23
2018-03-07T22:33:04.721Z,10.57
2018-03-07T22:35:33.854Z,11.80
2018-03-07T22:38:54.639Z,9.97
2018-03-07T22:41:23.722Z,10.73
2018-03-07T22:43:52.617Z,9.93
2018-03-07T22:46:21.603Z,10.10
2018-03-07T22:48:50.648Z,10.07
2018-03-07T22:51:19.713Z,10.10
2018-03-07T22:53:49.035Z,8.83
2018-03-07T22:56:17.733Z,9.85
2018-03-07T22:58:47.685Z,9.30
2018-03-07T23:01:16.667Z,13.20
2018-03-07T23:03:45.627Z,9.37
2018-03-07T23:06:14.671Z,10.53
2018-03-07T23:08:43.612Z,9.30
2018-03-07T23:13:46.429Z,8.97
2018-03-07T23:16:15.428Z,9.07
2018-03-07T23:18:44.646Z,9.13
2018-03-07T23:21:13.679Z,8.47
2018-03-07T23:23:42.640Z,8.53
2018-03-07T23:26:11.671Z,8.87
2018-03-07T23:28:40.709Z,8.73
2018-03-07T23:31:09.755Z,8.33
2018-03-07T23:33:38.707Z,8.57
2018-03-07T23:36:07.680Z,9.00
2018-03-07T23:38:36.735Z,7.87
2018-03-07T23:41:05.677Z,9.70
2018-03-07T23:46:21.441Z,8.43
2018-03-07T23:48:50.680Z,8.63
2018-03-07T23:51:19.703Z,8.13
2018-03-07T23:53:48.735Z,7.90
2018-03-07T23:56:18.632Z,7.63
2018-03-07T23:58:48.633Z,7.80
